Sandy, OR

8:05 PM PST on December 09, 2016 (GMT -0800)
Sandy City Center | | Change Station

Elev 948 ft 45.40 °N, 122.27 °W | Updated 15 seconds ago

Rain
Rain
34.5 °F
Feels Like 34 °F
N
0.0
Wind Variable Wind from NNW

Today
High -- | Low -- °F
--% Chance of Precip.
Yesterday
High -- | Low -- °F
Precip. -- in
Pressure 29.94 in
Visibility 4.0 miles
Clouds Scattered Clouds 900 ft
Overcast 1500 ft
Windchill 34 °F
Dew Point 34 °F
Humidity 98%
Rainfall 0.05 in
Snow Depth Not available.
7:37 AM 4:25 PM
Waxing Gibbous, 80% visible
METAR KTTD 100353Z 07012G19KT 4SM UP BR SCT009 OVC015 00/M01 A2994 RMK AO2 PK WND 09026/0256 UPB45FZRAB05E45 SLP139 P0006 I1004 T00001011
Pressure 29.94 in
Visibility 4.0 miles
Clouds Scattered Clouds 900 ft
Overcast 1500 ft
Windchill 34 °F
Dew Point 34 °F
Humidity 98%
Rainfall 0.05 in
Snow Depth Not available.
7:37 AM 4:25 PM
Waxing Gibbous, 80% visible
METAR KTTD 100353Z 07012G19KT 4SM UP BR SCT009 OVC015 00/M01 A2994 RMK AO2 PK WND 09026/0256 UPB45FZRAB05E45 SLP139 P0006 I1004 T00001011

10-Day Weather Forecast

Almanac

Astronomy

Dec. 09, 2016 Rise Set
Actual Time
Civil Twilight
Nautical Twilight
Astronomical Twilight
Moon
Length of Visible Light
Length of Day
Tomorrow will be .
, % of the Moon is Illuminated

Today's Extremes

State Highs State Lows

Community

WunderPhotos

Upload Photos

1,956,529 photos uploaded!

WunderBlog® & News

Nearby

Air Quality

  Air Quality AQ Index Pollutant
Not available.

Snow Depth

Station Depth Elevation

Earthquake Activity

City Distance Mag. Time & Date
Minimum magnitude displayed is 2.5.

Coastal Water Temperatures

Place Temperature

Stations

Nearby Weather Stations

Station Location Temp. Windchill Dew Point Humidity Wind Precip. Elev Updated Type
                   

Watches & Warnings

There are currently no watches in effect.